This is the latest recevied weather packets stored in our database for station/object SV9TNF-52. If no packets are shown the sender has not sent any weather packets the latest 10 day(s).
| Time | Temp. | Humidity | Pressure | Rain* | Wind** | Luminosity | Snow |
|---|---|---|---|---|---|---|---|
| 1788664981 | 22.22° C | 43% | 1021.7 hPa | 0 mm | 7.15 m/s, 183° | - | - |
| 1788664681 | 22.22° C | 44% | 1021.7 hPa | 0 mm | 7.6 m/s, 224° | - | - |
| 1788664380 | 22.22° C | 44% | 1021.7 hPa | 0 mm | 6.71 m/s, 210° | - | - |
| 1788664080 | 22.22° C | 43% | 1021.7 hPa | 0 mm | 7.6 m/s, 217° | - | - |
| 1788663780 | 22.22° C | 43% | 1021.7 hPa | 0 mm | 5.36 m/s, 212° | - | - |
| 1788663480 | 22.22° C | 43% | 1021.7 hPa | 0 mm | 7.6 m/s, 182° | - | - |
| 1788663180 | 22.78° C | 43% | 1021.7 hPa | 0 mm | 10.28 m/s, 250° | - | - |
| 1788662887 | 22.78° C | 43% | 1021.7 hPa | 0 mm | 7.15 m/s, 180° | - | - |
| 1788662580 | 22.78° C | 43% | 1021.7 hPa | 0 mm | 6.71 m/s, 195° | - | - |
| 1788662280 | 22.22° C | 43% | 1021.7 hPa | 0 mm | 4.92 m/s, 164° | - | - |
| 1788661980 | 22.78° C | 43% | 1021.7 hPa | 0 mm | 5.36 m/s, 157° | - | - |
| 1788661679 | 22.22° C | 44% | 1021.7 hPa | 0 mm | 6.26 m/s, 255° | - | - |
| 1788661380 | 22.22° C | 44% | 1021.7 hPa | 0 mm | 5.36 m/s, 233° | - | - |
| 1788661079 | 22.22° C | 44% | 1021.7 hPa | 0 mm | 7.15 m/s, 244° | - | - |
| 1788660779 | 22.78° C | 43% | 1021.7 hPa | 0 mm | 6.26 m/s, 217° | - | - |
| 1788660479 | 22.78° C | 43% | 1021.7 hPa | 0 mm | 8.94 m/s, 234° | - | - |
| 1788660179 | 22.78° C | 44% | 1021.7 hPa | 0 mm | 8.49 m/s, 216° | - | - |
| 1788659879 | 22.78° C | 44% | 1021.7 hPa | 0 mm | 8.05 m/s, 227° | - | - |
| 1788659579 | 22.22° C | 44% | 1021.7 hPa | 0 mm | 5.81 m/s, 210° | - | - |
| 1788659279 | 22.22° C | 44% | 1021.7 hPa | 0 mm | 7.15 m/s, 263° | - | - |
| 1788658978 | 22.78° C | 44% | 1021.7 hPa | 0 mm | 8.05 m/s, 203° | - | - |
| 1788658678 | 22.78° C | 44% | 1021.7 hPa | 0 mm | 6.71 m/s, 187° | - | - |
| 1788658378 | 22.22° C | 45% | 1021.7 hPa | 0 mm | 6.26 m/s, 199° | - | - |
| 1788658078 | 22.22° C | 45% | 1021.7 hPa | 0 mm | 7.15 m/s, 217° | - | - |
| 1788657778 | 22.78° C | 45% | 1021.7 hPa | 0 mm | 6.26 m/s, 150° | - | - |
* Rain latest hour (hover to see other rain measurements)
** Current wind speed in m/s (hover to see current wind gust speed)